首页
METAR-TAF:

METAR-TAF

机场 :

Ardmore, 奧克拉荷馬州, 美国

纬度: 34-18-11N, 经度: 097-01-10W, 海拔: 232米

当前天气观测

该预报发布于1小时和10分钟前的17:50 UTC
风速7节,风向南转南东
温度 31°C
湿度 59%
气压 1023 hPa
能見度: 16.1公里
散云层高于3100英尺

METAR: KADM 201750Z 16007KT 10SM SCT031 31/22 A3022

时间: 14:00 (19:00 UTC)


TAF: 丢失

超过4000个机场的气象观测和天气预报(METAR&TAF报告)。

可查询的气象台以黄色和红色小点在地图上表示。

将鼠标移到小点上方,可查看气象台名称。

然后点击查看天气观测和预报。

如需切换地图:点击带黑十字的绿色按钮放大地图;点击带横线的绿色按钮缩小地图;或者点击绿色箭头查看邻近地区的地图。


METAR-TAF: